Time;durP1;ratioP1;P1;durP2;ratioP2;P2;SDS_P1;SDS_P2;PMS_P1;PMS_P2;Temp;Humidity;BMP_temperature;BMP_pressure;BME280_temperature;BME280_humidity;BME280_pressure;Samples;Min_cycle;Max_cycle;Signal;HPM_P1;HPM_P2
2023/01/02 00:01:40;;;;;;;9.67;3.37;;;13.70;99.90;;;;;;5046789;28;20740;-37
2023/01/02 00:04:06;;;;;;;4.93;3.47;;;13.60;99.90;;;;;;5040714;28;20198;-37
2023/01/02 00:06:33;;;;;;;9.67;3.77;;;13.70;99.90;;;;;;5039604;28;20432;-40
2023/01/02 00:09:00;;;;;;;7.73;3.37;;;13.70;99.90;;;;;;5043945;28;20241;-39
2023/01/02 00:11:25;;;;;;;9.07;3.73;;;13.70;99.90;;;;;;5034636;28;20475;-37
2023/01/02 00:13:51;;;;;;;6.73;3.40;;;13.80;99.90;;;;;;5030941;28;20421;-33
2023/01/02 00:16:17;;;;;;;7.77;3.77;;;13.80;99.90;;;;;;5036531;28;20662;-38
2023/01/02 00:18:42;;;;;;;6.70;2.90;;;13.90;99.90;;;;;;5031373;28;20248;-34
2023/01/02 00:21:08;;;;;;;9.93;3.17;;;13.90;99.90;;;;;;5031149;28;20191;-34
2023/01/02 00:23:34;;;;;;;7.80;3.10;;;13.80;99.90;;;;;;5030766;28;20194;-41
2023/01/02 00:26:00;;;;;;;5.37;3.07;;;13.90;99.90;;;;;;5031366;28;20614;-40
2023/01/02 00:28:25;;;;;;;6.90;3.20;;;14.00;99.90;;;;;;5031394;28;20385;-37
2023/01/02 00:30:51;;;;;;;5.27;3.40;;;14.00;99.90;;;;;;5031079;28;20425;-38
2023/01/02 00:33:17;;;;;;;5.50;3.80;;;14.00;99.90;;;;;;5030910;28;20816;-37
2023/01/02 00:35:43;;;;;;;4.40;2.83;;;13.90;99.90;;;;;;5039418;28;20508;-40
2023/01/02 00:38:08;;;;;;;5.50;4.67;;;13.90;99.90;;;;;;5031215;28;20611;-34
2023/01/02 00:40:34;;;;;;;8.13;3.90;;;14.00;99.90;;;;;;5031057;28;20444;-37
2023/01/02 00:43:00;;;;;;;6.13;3.30;;;13.90;99.90;;;;;;5030725;28;20190;-37
2023/01/02 00:45:26;;;;;;;9.70;3.57;;;13.90;99.90;;;;;;5030642;28;20209;-38
2023/01/02 00:47:52;;;;;;;7.13;3.73;;;13.90;99.90;;;;;;5031034;28;20460;-38
2023/01/02 00:50:17;;;;;;;9.97;3.37;;;13.90;99.90;;;;;;5030106;28;20273;-39
2023/01/02 00:52:43;;;;;;;5.83;3.23;;;13.90;99.90;;;;;;5029985;28;20233;-39
2023/01/02 00:55:09;;;;;;;6.23;3.30;;;13.90;99.90;;;;;;5030249;28;20191;-38
2023/01/02 00:57:35;;;;;;;6.60;3.80;;;13.90;99.90;;;;;;5030818;28;20194;-40
2023/01/02 01:00:00;;;;;;;6.30;3.50;;;13.90;99.90;;;;;;5047251;28;20919;-38
2023/01/02 01:02:26;;;;;;;5.33;3.17;;;13.80;99.90;;;;;;5050457;28;20181;-37
2023/01/02 01:04:52;;;;;;;8.20;3.20;;;13.90;99.90;;;;;;5049561;28;20270;-39
2023/01/02 01:07:17;;;;;;;4.53;2.57;;;13.80;99.90;;;;;;5050266;28;20210;-37
2023/01/02 01:09:43;;;;;;;7.40;3.20;;;13.80;99.90;;;;;;5050514;28;20284;-41
2023/01/02 01:12:09;;;;;;;7.20;3.70;;;13.80;99.90;;;;;;5049004;28;20215;-39
2023/01/02 01:14:34;;;;;;;7.20;3.83;;;13.70;99.90;;;;;;5046496;28;20194;-37
2023/01/02 01:17:00;;;;;;;7.03;3.73;;;13.70;99.90;;;;;;5045565;28;20265;-37
2023/01/02 01:19:31;;;;;;;7.10;3.37;;;13.60;99.90;;;;;;5048835;28;20305;-37
2023/01/02 01:21:56;;;;;;;6.83;3.70;;;13.70;99.90;;;;;;5050546;28;20182;-38
2023/01/02 01:24:22;;;;;;;6.30;3.10;;;13.70;99.90;;;;;;5049928;28;20405;-35
2023/01/02 01:26:48;;;;;;;6.07;3.33;;;13.60;99.90;;;;;;5050351;28;20174;-37
2023/01/02 01:29:13;;;;;;;8.10;3.50;;;13.70;99.90;;;;;;5050204;28;20210;-38
2023/01/02 01:31:39;;;;;;;5.03;3.43;;;13.60;99.90;;;;;;5049317;28;20251;-40
2023/01/02 01:34:05;;;;;;;5.07;2.90;;;13.60;99.90;;;;;;5049219;28;20181;-35
2023/01/02 01:36:30;;;;;;;5.27;3.30;;;13.60;99.90;;;;;;5050014;28;20210;-35
2023/01/02 01:38:56;;;;;;;7.50;3.27;;;13.60;99.90;;;;;;5048513;28;20231;-40
2023/01/02 01:41:24;;;;;;;6.30;3.00;;;13.60;99.90;;;;;;5050098;28;20182;-37
2023/01/02 01:43:51;;;;;;;5.07;3.20;;;13.60;99.90;;;;;;5049700;28;20189;-40
2023/01/02 01:46:26;;;;;;;6.33;3.00;;;13.60;99.90;;;;;;5049883;28;20426;-35
2023/01/02 01:49:07;;;;;;;5.57;3.53;;;13.60;99.90;;;;;;5049690;28;20451;-36
2023/01/02 01:51:38;;;;;;;6.37;3.50;;;13.60;99.90;;;;;;5050118;28;20408;-41
2023/01/02 01:54:10;;;;;;;11.53;3.80;;;13.50;99.90;;;;;;5049100;28;20432;-40
2023/01/02 01:56:40;;;;;;;14.13;4.20;;;13.60;99.90;;;;;;5049770;28;20490;-36
2023/01/02 01:59:08;;;;;;;7.63;3.70;;;13.50;99.90;;;;;;5049371;28;20835;-39
2023/01/02 02:01:34;;;;;;;4.87;3.13;;;13.60;99.90;;;;;;5049883;28;20408;-41
2023/01/02 02:04:00;;;;;;;7.33;3.93;;;13.50;99.90;;;;;;5047252;28;20985;-37
2023/01/02 02:06:26;;;;;;;8.13;3.93;;;13.50;99.90;;;;;;5049327;28;20507;-36
2023/01/02 02:09:01;;;;;;;5.50;3.03;;;13.50;99.90;;;;;;5049382;28;20461;-34
2023/01/02 02:11:27;;;;;;;6.17;3.50;;;13.50;99.90;;;;;;5049623;28;20811;-41
2023/01/02 02:13:58;;;;;;;8.23;4.17;;;13.50;99.90;;;;;;5048847;28;20752;-35
2023/01/02 02:16:29;;;;;;;8.00;4.23;;;13.50;99.90;;;;;;5049078;28;20963;-38
2023/01/02 02:19:22;;;;;;;7.00;3.50;;;13.50;99.90;;;;;;5049265;28;20412;-38
2023/01/02 02:21:54;;;;;;;6.83;3.50;;;13.50;99.90;;;;;;5048989;28;20446;-36
2023/01/02 02:24:54;;;;;;;5.90;3.00;;;13.40;99.90;;;;;;5048641;28;20615;-38
2023/01/02 02:27:40;;;;;;;7.63;4.00;;;13.50;99.90;;;;;;5048831;28;20459;-37
2023/01/02 02:30:10;;;;;;;8.27;3.87;;;13.40;99.90;;;;;;5049045;28;20412;-39
2023/01/02 02:32:53;;;;;;;6.43;3.67;;;13.40;99.90;;;;;;5046610;28;20420;-37
2023/01/02 02:35:37;;;;;;;9.67;3.77;;;13.40;99.90;;;;;;5048591;28;20416;-39
2023/01/02 02:38:31;;;;;;;6.70;3.50;;;13.40;99.90;;;;;;5048909;28;20438;-33
2023/01/02 02:41:09;;;;;;;6.57;3.20;;;13.40;99.90;;;;;;5048939;28;20483;-40
2023/01/02 02:43:54;;;;;;;6.03;2.87;;;13.50;99.90;;;;;;5048284;28;20518;-35
2023/01/02 02:46:22;;;;;;;9.50;3.53;;;13.40;99.90;;;;;;5048677;28;20778;-35
2023/01/02 02:49:08;;;;;;;9.50;3.33;;;13.40;99.90;;;;;;5048469;28;20547;-35
2023/01/02 02:51:47;;;;;;;8.73;3.50;;;13.50;99.90;;;;;;5037027;28;20412;-40
2023/01/02 02:54:34;;;;;;;7.77;3.30;;;13.40;99.90;;;;;;5048003;28;20419;-37
2023/01/02 02:57:02;;;;;;;8.97;3.60;;;13.50;99.90;;;;;;5048697;28;20487;-34
2023/01/02 02:59:29;;;;;;;8.80;3.10;;;13.50;99.90;;;;;;5048196;28;20466;-40
2023/01/02 03:01:54;;;;;;;4.83;2.80;;;13.50;99.90;;;;;;5048524;28;20400;-37
2023/01/02 03:04:21;;;;;;;8.93;3.63;;;13.40;99.90;;;;;;5047703;28;20551;-35
2023/01/02 03:06:59;;;;;;;10.17;3.97;;;13.40;99.90;;;;;;5048544;28;20231;-38
2023/01/02 03:09:43;;;;;;;7.20;4.37;;;13.40;99.90;;;;;;5048394;28;20458;-37
2023/01/02 03:12:38;;;;;;;5.23;3.47;;;13.40;99.90;;;;;;5048460;28;20483;-36
2023/01/02 03:15:34;;;;;;;5.90;3.70;;;13.50;99.90;;;;;;5046770;28;20442;-37
2023/01/02 03:18:15;;;;;;;7.93;3.30;;;13.40;99.90;;;;;;5028412;28;20421;-40
2023/01/02 03:20:45;;;;;;;6.13;3.43;;;13.40;99.90;;;;;;5028168;28;20567;-37
2023/01/02 03:23:18;;;;;;;6.90;3.63;;;13.40;99.90;;;;;;5027936;28;20479;-40
2023/01/02 03:25:44;;;;;;;5.47;3.63;;;13.40;99.90;;;;;;5028526;28;20515;-34
2023/01/02 03:28:13;;;;;;;6.03;3.13;;;13.30;99.90;;;;;;5028667;28;20464;-37
2023/01/02 03:30:41;;;;;;;5.13;3.10;;;13.30;99.90;;;;;;5027960;28;20412;-37
2023/01/02 03:33:12;;;;;;;5.80;3.60;;;13.30;99.90;;;;;;5027000;28;20436;-34
2023/01/02 03:35:47;;;;;;;5.60;3.10;;;13.30;99.90;;;;;;5038654;28;20412;-36
2023/01/02 03:38:35;;;;;;;6.00;4.50;;;13.30;99.90;;;;;;5048205;28;20430;-35
2023/01/02 03:41:31;;;;;;;4.30;3.90;;;13.30;99.90;;;;;;5047741;28;20416;-35
2023/01/02 03:43:58;;;;;;;8.80;3.87;;;13.30;99.90;;;;;;5047104;28;20861;-38
2023/01/02 03:46:37;;;;;;;6.13;3.67;;;13.30;99.90;;;;;;5047905;28;20518;-38
2023/01/02 03:49:22;;;;;;;5.90;3.80;;;13.30;99.90;;;;;;5048032;28;20516;-38
2023/01/02 03:51:48;;;;;;;6.83;3.60;;;13.30;99.90;;;;;;5047896;28;20899;-40
2023/01/02 03:54:16;;;;;;;8.87;4.30;;;13.20;99.90;;;;;;5047440;28;20846;-37
2023/01/02 03:57:03;;;;;;;9.93;3.80;;;13.20;99.90;;;;;;5047845;28;20412;-38
2023/01/02 03:59:29;;;;;;;4.40;3.50;;;13.20;99.90;;;;;;5048005;28;20419;-39
2023/01/02 04:02:11;;;;;;;6.27;4.27;;;13.20;99.90;;;;;;5047962;28;20404;-34
2023/01/02 04:04:58;;;;;;;6.53;3.30;;;13.20;99.90;;;;;;5047388;28;20636;-41
2023/01/02 04:07:53;;;;;;;4.77;3.57;;;13.20;99.90;;;;;;5047909;28;20783;-37
2023/01/02 04:10:20;;;;;;;8.90;3.90;;;13.20;99.90;;;;;;5046371;28;20855;-41
2023/01/02 04:12:49;;;;;;;10.00;3.53;;;13.20;99.90;;;;;;5047570;28;20416;-38
2023/01/02 04:15:18;;;;;;;9.23;4.03;;;13.20;99.90;;;;;;5047239;28;20404;-35
2023/01/02 04:17:49;;;;;;;8.40;4.17;;;13.20;99.90;;;;;;5047664;28;20779;-38
2023/01/02 04:20:32;;;;;;;5.13;3.20;;;13.20;99.90;;;;;;5048093;28;20421;-37
2023/01/02 04:23:18;;;;;;;7.50;3.57;;;13.20;99.90;;;;;;5047384;28;20669;-40
2023/01/02 04:25:53;;;;;;;5.13;3.43;;;13.10;99.90;;;;;;5049012;28;20419;-39
2023/01/02 04:28:24;;;;;;;8.63;3.70;;;13.20;99.90;;;;;;5051400;28;20447;-33
2023/01/02 04:31:14;;;;;;;8.73;3.80;;;13.10;99.90;;;;;;5051182;28;20775;-38
2023/01/02 04:33:46;;;;;;;7.17;3.73;;;13.10;99.90;;;;;;5049072;28;20424;-38
2023/01/02 04:36:14;;;;;;;10.70;3.70;;;13.00;99.90;;;;;;5051208;28;20412;-41
2023/01/02 04:38:44;;;;;;;9.63;3.70;;;13.10;99.90;;;;;;5051161;28;20453;-40
2023/01/02 04:41:15;;;;;;;10.07;3.50;;;13.10;99.90;;;;;;5051043;28;20506;-34
2023/01/02 04:43:41;;;;;;;9.47;3.20;;;13.00;99.90;;;;;;5050245;28;20529;-40
2023/01/02 04:46:07;;;;;;;8.03;4.10;;;13.10;99.90;;;;;;5051059;28;20982;-40
2023/01/02 04:48:32;;;;;;;6.33;3.53;;;13.00;99.90;;;;;;5051271;28;20583;-35
2023/01/02 04:50:58;;;;;;;7.20;3.47;;;13.10;99.90;;;;;;5050865;28;20571;-38
2023/01/02 04:53:24;;;;;;;4.07;3.20;;;13.10;99.90;;;;;;5050323;28;20423;-35
2023/01/02 04:55:55;;;;;;;8.30;3.80;;;13.10;99.90;;;;;;5050691;28;20181;-38
2023/01/02 04:58:21;;;;;;;5.73;3.43;;;13.10;99.90;;;;;;5051155;28;20327;-37
2023/01/02 05:00:47;;;;;;;11.80;4.33;;;13.10;99.90;;;;;;5050770;28;20892;-38
2023/01/02 05:03:12;;;;;;;7.33;4.10;;;13.10;99.90;;;;;;5050287;28;20174;-35
2023/01/02 05:05:38;;;;;;;6.97;3.33;;;13.10;99.90;;;;;;5050699;28;20202;-37
2023/01/02 05:08:04;;;;;;;9.20;3.20;;;13.10;99.90;;;;;;5050640;28;20579;-37
2023/01/02 05:10:30;;;;;;;8.70;3.93;;;13.10;99.90;;;;;;5050422;28;20257;-37
2023/01/02 05:12:58;;;;;;;4.67;3.40;;;13.10;99.90;;;;;;5050436;28;20843;-40
2023/01/02 05:15:24;;;;;;;5.83;2.97;;;13.10;99.90;;;;;;5050257;28;20455;-39
2023/01/02 05:17:50;;;;;;;9.93;3.37;;;13.00;99.90;;;;;;5050505;28;20558;-40
2023/01/02 05:20:15;;;;;;;9.67;3.70;;;13.00;99.90;;;;;;5050432;28;20527;-40
2023/01/02 05:25:27;;;;;;;7.77;3.70;;;13.10;99.90;;;;;;5050229;28;20811;-40
2023/01/02 05:27:54;;;;;;;8.47;4.30;;;13.10;99.90;;;;;;5050008;28;20959;-40
2023/01/02 05:30:20;;;;;;;6.77;2.70;;;13.00;99.90;;;;;;5050276;28;20416;-37
2023/01/02 05:32:47;;;;;;;6.70;2.97;;;13.00;99.90;;;;;;5048233;28;20463;-38
2023/01/02 05:35:13;;;;;;;5.97;2.90;;;13.10;99.90;;;;;;5049835;28;20423;-39
2023/01/02 05:37:38;;;;;;;6.03;3.10;;;13.10;99.90;;;;;;5049251;28;20946;-40
2023/01/02 05:40:04;;;;;;;6.40;2.97;;;13.10;99.90;;;;;;5050268;28;20774;-36
2023/01/02 05:42:30;;;;;;;5.83;3.20;;;13.10;99.90;;;;;;5049945;28;20205;-38
2023/01/02 05:44:56;;;;;;;6.97;3.03;;;13.10;99.90;;;;;;5049485;28;20416;-37
2023/01/02 05:47:21;;;;;;;5.17;3.50;;;13.10;99.90;;;;;;5049964;28;20567;-40
2023/01/02 05:49:47;;;;;;;5.00;3.13;;;13.10;99.90;;;;;;5050008;28;20703;-38
2023/01/02 05:52:13;;;;;;;7.97;3.20;;;13.10;99.90;;;;;;5038443;28;20197;-38
2023/01/02 05:54:38;;;;;;;6.60;3.27;;;13.10;99.90;;;;;;5044882;28;20814;-34
2023/01/02 05:57:04;;;;;;;4.67;2.97;;;13.10;99.90;;;;;;5049545;28;20186;-39
2023/01/02 05:59:30;;;;;;;3.90;3.03;;;13.10;99.90;;;;;;5049674;28;20640;-40
2023/01/02 06:01:55;;;;;;;8.73;3.60;;;13.00;99.90;;;;;;5049094;28;20649;-36
2023/01/02 06:04:21;;;;;;;4.50;2.90;;;13.10;99.90;;;;;;5045199;28;20318;-41
2023/01/02 06:06:48;;;;;;;6.17;3.80;;;13.10;99.90;;;;;;5049309;28;20198;-40
2023/01/02 06:09:15;;;;;;;5.50;3.10;;;13.00;99.90;;;;;;5049223;28;20298;-40
2023/01/02 06:11:41;;;;;;;4.93;3.57;;;13.10;99.90;;;;;;5047990;28;20818;-39
2023/01/02 06:14:09;;;;;;;6.13;3.47;;;13.10;99.90;;;;;;5048746;28;20592;-39
2023/01/02 06:16:36;;;;;;;4.37;2.40;;;13.10;99.90;;;;;;5048187;28;20417;-40
2023/01/02 06:19:02;;;;;;;4.60;3.00;;;13.00;99.90;;;;;;5049421;28;20438;-37
2023/01/02 06:21:28;;;;;;;5.23;2.77;;;13.00;99.90;;;;;;5048930;28;20412;-37
2023/01/02 06:23:55;;;;;;;7.73;3.10;;;13.00;99.90;;;;;;5048873;28;20428;-38
2023/01/02 06:26:23;;;;;;;5.73;2.90;;;13.00;99.90;;;;;;5049224;28;20186;-37
2023/01/02 06:28:51;;;;;;;6.37;3.23;;;13.00;99.90;;;;;;5049399;28;20460;-38
2023/01/02 06:31:18;;;;;;;5.90;2.90;;;13.00;99.90;;;;;;5047416;28;20445;-38
2023/01/02 06:33:45;;;;;;;5.87;2.77;;;13.00;99.90;;;;;;5048500;28;20491;-40
2023/01/02 06:36:14;;;;;;;4.93;2.90;;;13.10;99.90;;;;;;5048587;28;20451;-37
2023/01/02 06:38:40;;;;;;;4.63;2.70;;;13.10;99.90;;;;;;5038032;28;20425;-38
2023/01/02 06:41:06;;;;;;;5.57;3.23;;;13.00;99.90;;;;;;5029274;28;20412;-38
2023/01/02 06:43:39;;;;;;;6.50;2.90;;;13.00;99.90;;;;;;5028701;28;20198;-37
2023/01/02 06:46:05;;;;;;;4.60;2.53;;;13.00;99.90;;;;;;5029131;28;20707;-36
2023/01/02 06:48:32;;;;;;;7.67;3.30;;;13.00;99.90;;;;;;5035933;28;20563;-37
2023/01/02 06:50:58;;;;;;;4.23;2.50;;;13.00;99.90;;;;;;5048347;28;20174;-40
2023/01/02 06:53:25;;;;;;;7.87;2.40;;;13.00;99.90;;;;;;5048212;28;20866;-37
2023/01/02 06:55:58;;;;;;;4.93;2.17;;;13.00;99.90;;;;;;5048801;28;20188;-38
2023/01/02 06:58:25;;;;;;;9.63;2.67;;;13.00;99.90;;;;;;5044030;28;20439;-38
2023/01/02 07:00:51;;;;;;;4.90;2.63;;;13.00;99.90;;;;;;5048205;28;20501;-37
2023/01/02 07:03:18;;;;;;;5.90;2.80;;;13.00;99.90;;;;;;5047909;28;20428;-40
2023/01/02 07:05:43;;;;;;;4.70;2.57;;;13.00;99.90;;;;;;5048524;28;20875;-41
2023/01/02 07:08:10;;;;;;;5.13;2.63;;;13.00;99.90;;;;;;5048439;28;20495;-37
2023/01/02 07:10:36;;;;;;;2.77;2.20;;;13.00;99.90;;;;;;5047236;28;20478;-39
2023/01/02 07:13:02;;;;;;;4.23;2.57;;;13.00;99.90;;;;;;5047854;28;20424;-41
2023/01/02 07:15:27;;;;;;;5.03;2.43;;;13.00;99.90;;;;;;5041550;28;20598;-38
2023/01/02 07:17:53;;;;;;;3.13;2.30;;;13.00;99.90;;;;;;5048028;28;20272;-38
2023/01/02 07:20:19;;;;;;;3.20;2.60;;;13.00;99.90;;;;;;5048145;28;20243;-33
2023/01/02 07:22:50;;;;;;;4.23;2.80;;;13.00;99.90;;;;;;5048041;28;20420;-40
2023/01/02 07:25:16;;;;;;;7.13;2.83;;;13.00;99.90;;;;;;5047848;28;20576;-38
2023/01/02 07:27:41;;;;;;;6.53;2.73;;;13.10;99.90;;;;;;5048263;28;20985;-35
2023/01/02 07:30:08;;;;;;;5.70;2.50;;;13.10;99.90;;;;;;5044858;28;20436;-37
2023/01/02 07:32:33;;;;;;;6.57;2.80;;;13.00;99.90;;;;;;5044488;28;20272;-37
2023/01/02 07:34:59;;;;;;;4.40;2.50;;;13.00;99.90;;;;;;5046702;28;20503;-40
2023/01/02 07:37:25;;;;;;;5.17;2.60;;;13.00;99.90;;;;;;5048257;28;20186;-35
2023/01/02 07:39:50;;;;;;;5.83;2.20;;;13.00;99.90;;;;;;5046882;28;20192;-38
2023/01/02 07:42:16;;;;;;;4.43;2.37;;;13.00;99.90;;;;;;5046498;28;20204;-36
2023/01/02 07:44:41;;;;;;;3.23;2.00;;;13.00;99.90;;;;;;5037412;28;20546;-39
2023/01/02 07:47:07;;;;;;;6.27;2.60;;;13.00;99.90;;;;;;5035269;28;20182;-39
2023/01/02 07:49:33;;;;;;;6.30;2.97;;;13.00;99.90;;;;;;5038347;28;20237;-38
2023/01/02 07:51:58;;;;;;;5.30;2.30;;;13.00;99.90;;;;;;5035932;28;20182;-39
2023/01/02 07:54:24;;;;;;;5.50;2.20;;;12.90;99.90;;;;;;5046176;28;20186;-40
2023/01/02 07:56:51;;;;;;;4.30;2.50;;;12.90;99.90;;;;;;5037276;28;20273;-38
2023/01/02 07:59:17;;;;;;;4.97;2.83;;;12.90;99.90;;;;;;5041518;28;20671;-37
2023/01/02 08:01:43;;;;;;;3.93;2.70;;;12.90;99.90;;;;;;5051228;28;20424;-35
2023/01/02 08:04:08;;;;;;;2.63;2.13;;;12.90;99.90;;;;;;5045106;28;20207;-38
2023/01/02 08:06:34;;;;;;;3.43;2.40;;;12.90;99.90;;;;;;5052144;28;20189;-38
2023/01/02 08:08:59;;;;;;;4.20;2.60;;;12.90;99.90;;;;;;5049042;28;20792;-39
2023/01/02 08:11:25;;;;;;;3.17;2.37;;;12.90;99.90;;;;;;5035692;28;20194;-35
2023/01/02 08:13:51;;;;;;;4.27;2.77;;;12.90;99.90;;;;;;5031138;28;20183;-35
2023/01/02 08:16:20;;;;;;;5.53;2.40;;;12.90;99.90;;;;;;5040854;28;20526;-37
2023/01/02 08:18:46;;;;;;;4.47;2.10;;;12.90;99.90;;;;;;5051883;28;20188;-37
2023/01/02 08:21:13;;;;;;;4.43;2.20;;;12.90;99.90;;;;;;5051634;28;20428;-38
2023/01/02 08:23:38;;;;;;;3.77;2.40;;;12.90;99.90;;;;;;5050861;28;20424;-38
2023/01/02 08:26:06;;;;;;;4.30;2.60;;;12.80;99.90;;;;;;5051577;28;20446;-40
2023/01/02 08:28:33;;;;;;;3.47;2.27;;;12.90;99.90;;;;;;5051112;28;20624;-36
2023/01/02 08:30:59;;;;;;;3.63;2.70;;;12.90;99.90;;;;;;5051494;28;20440;-38
2023/01/02 08:33:25;;;;;;;5.50;2.47;;;12.90;99.90;;;;;;5050228;28;20930;-37
2023/01/02 08:35:51;;;;;;;5.00;2.87;;;12.90;99.90;;;;;;5051371;28;20791;-39
2023/01/02 08:38:17;;;;;;;5.23;2.63;;;12.80;99.90;;;;;;5051180;28;20416;-38
2023/01/02 08:40:43;;;;;;;3.43;2.40;;;12.80;99.90;;;;;;5036763;28;20425;-38
2023/01/02 08:43:09;;;;;;;3.57;2.73;;;12.80;99.90;;;;;;5030102;28;20186;-40
2023/01/02 08:45:35;;;;;;;3.50;2.40;;;12.80;99.90;;;;;;5048775;28;20190;-38
2023/01/02 08:48:00;;;;;;;6.53;2.70;;;12.80;99.90;;;;;;5051371;28;20966;-36
2023/01/02 08:50:26;;;;;;;6.93;2.80;;;12.80;99.90;;;;;;5050998;28;20511;-39
2023/01/02 08:52:52;;;;;;;5.40;2.87;;;12.70;99.90;;;;;;5050919;28;20508;-37
2023/01/02 08:55:17;;;;;;;6.03;2.53;;;12.70;99.90;;;;;;5050873;28;20190;-40
2023/01/02 08:57:43;;;;;;;5.13;2.70;;;12.70;99.90;;;;;;5050758;28;20188;-38
2023/01/02 09:00:10;;;;;;;4.13;2.80;;;12.70;99.90;;;;;;5050802;28;20276;-40
2023/01/02 09:02:35;;;;;;;4.40;2.70;;;12.70;99.90;;;;;;5050967;28;20441;-35
2023/01/02 09:05:01;;;;;;;3.97;3.27;;;12.70;99.90;;;;;;5050023;28;21057;-39
2023/01/02 09:07:27;;;;;;;4.37;2.83;;;12.70;99.90;;;;;;5050625;28;20672;-37
2023/01/02 09:09:53;;;;;;;4.20;2.83;;;12.70;99.90;;;;;;5049459;28;20324;-38
2023/01/02 09:12:18;;;;;;;3.43;2.97;;;12.70;99.90;;;;;;5049457;28;20514;-34
2023/01/02 09:14:44;;;;;;;6.07;3.07;;;12.70;99.90;;;;;;5050062;28;20182;-34
2023/01/02 09:17:10;;;;;;;4.27;3.10;;;12.70;99.90;;;;;;5050404;28;20188;-38
2023/01/02 09:19:35;;;;;;;6.53;2.63;;;12.60;99.90;;;;;;5050524;28;20200;-37
2023/01/02 09:22:01;;;;;;;2.47;2.03;;;12.60;99.90;;;;;;5050459;28;20208;-40
2023/01/02 09:24:27;;;;;;;4.83;1.87;;;12.60;99.90;;;;;;5049818;28;20547;-37
2023/01/02 09:26:53;;;;;;;2.03;1.67;;;12.50;99.90;;;;;;5050594;28;20193;-39
2023/01/02 09:29:19;;;;;;;1.80;1.70;;;12.50;99.90;;;;;;5050459;28;20455;-34
2023/01/02 09:31:45;;;;;;;1.50;1.40;;;12.50;99.90;;;;;;5050335;28;20197;-39
2023/01/02 09:34:11;;;;;;;2.43;1.77;;;12.50;99.90;;;;;;5050259;28;20876;-34
2023/01/02 09:36:37;;;;;;;2.10;1.60;;;12.50;99.90;;;;;;5050375;28;20612;-37
2023/01/02 09:39:04;;;;;;;1.23;1.03;;;12.50;99.90;;;;;;5049365;28;20416;-38
2023/01/02 09:41:34;;;;;;;1.00;0.90;;;12.40;99.90;;;;;;5049760;28;20429;-40
2023/01/02 09:44:14;;;;;;;1.00;0.80;;;12.40;99.90;;;;;;5049737;28;20426;-41
2023/01/02 09:46:49;;;;;;;1.03;0.70;;;12.30;99.90;;;;;;5049900;28;20977;-40
2023/01/02 09:49:20;;;;;;;0.80;0.73;;;12.30;99.90;;;;;;5050287;28;21032;-38
2023/01/02 09:51:46;;;;;;;0.80;0.70;;;12.30;99.90;;;;;;5049882;28;20420;-41
2023/01/02 09:54:23;;;;;;;1.17;0.77;;;12.20;99.90;;;;;;5047781;28;20412;-36
2023/01/02 09:57:03;;;;;;;1.40;0.77;;;12.20;99.90;;;;;;5050229;28;20747;-38
2023/01/02 09:59:34;;;;;;;2.27;1.07;;;12.20;99.90;;;;;;5049543;28;20422;-39
2023/01/02 10:02:12;;;;;;;2.53;1.53;;;12.20;99.90;;;;;;5049810;28;20419;-40
2023/01/02 10:04:52;;;;;;;2.10;1.50;;;12.20;99.90;;;;;;5048796;28;20978;-37
2023/01/02 10:07:51;;;;;;;2.00;1.20;;;12.10;99.90;;;;;;5049867;28;21014;-38
2023/01/02 10:10:39;;;;;;;1.93;1.50;;;12.10;99.90;;;;;;5049495;28;20455;-37
2023/01/02 10:13:27;;;;;;;2.20;1.47;;;12.10;99.90;;;;;;5048790;28;20405;-40
2023/01/02 10:15:53;;;;;;;2.40;2.20;;;12.10;99.90;;;;;;5049511;28;20416;-34
2023/01/02 10:18:24;;;;;;;1.93;1.70;;;12.00;99.90;;;;;;5049312;28;20793;-38
2023/01/02 10:21:02;;;;;;;2.77;2.00;;;12.00;99.90;;;;;;5049308;28;20491;-39
2023/01/02 10:23:35;;;;;;;2.53;2.33;;;12.10;99.90;;;;;;5047206;28;20406;-39
2023/01/02 10:26:06;;;;;;;5.27;2.80;;;12.00;99.90;;;;;;5049204;28;20489;-35
2023/01/02 10:28:57;;;;;;;2.23;2.03;;;12.00;99.90;;;;;;5049240;28;20456;-38
2023/01/02 10:32:03;;;;;;;3.60;3.10;;;12.00;99.90;;;;;;5049220;28;20470;-41
2023/01/02 10:34:57;;;;;;;3.03;2.47;;;12.00;99.90;;;;;;5048567;28;20524;-36
2023/01/02 10:37:26;;;;;;;3.17;2.87;;;12.10;99.90;;;;;;5049021;28;20432;-40
2023/01/02 10:39:52;;;;;;;4.80;3.53;;;12.10;99.90;;;;;;5047663;28;20447;-41
2023/01/02 10:42:18;;;;;;;3.67;3.33;;;12.10;99.90;;;;;;5049255;28;20412;-37
2023/01/02 10:44:46;;;;;;;4.77;3.90;;;12.00;99.90;;;;;;5047193;28;20539;-39
2023/01/02 10:47:31;;;;;;;4.87;4.40;;;12.00;99.90;;;;;;5047391;28;20421;-38
2023/01/02 10:49:58;;;;;;;4.93;4.43;;;11.90;99.90;;;;;;5047624;28;20511;-38
2023/01/02 10:52:26;;;;;;;5.47;4.37;;;11.90;99.90;;;;;;5048466;28;20907;-36
2023/01/02 10:54:54;;;;;;;4.90;4.40;;;11.90;99.90;;;;;;5048290;28;20403;-37
2023/01/02 10:57:32;;;;;;;5.33;4.83;;;11.90;99.90;;;;;;5048570;28;20404;-37
2023/01/02 11:00:00;;;;;;;6.37;4.67;;;11.80;99.90;;;;;;5049051;28;20396;-37
2023/01/02 11:02:36;;;;;;;4.83;4.43;;;11.80;99.90;;;;;;5048598;28;20480;-38
2023/01/02 11:05:03;;;;;;;9.13;5.37;;;11.90;99.90;;;;;;5047908;28;20484;-34
2023/01/02 11:07:32;;;;;;;4.90;4.40;;;11.90;99.90;;;;;;5046915;28;20420;-41
2023/01/02 11:09:58;;;;;;;5.70;5.17;;;11.80;99.90;;;;;;5048627;28;20562;-41
2023/01/02 11:12:24;;;;;;;5.93;4.80;;;11.90;99.90;;;;;;5048319;28;21002;-38
2023/01/02 11:14:50;;;;;;;6.33;5.63;;;11.90;99.90;;;;;;5047975;28;20322;-38
2023/01/02 11:17:19;;;;;;;5.60;5.10;;;11.90;99.90;;;;;;5048216;28;20209;-38
2023/01/02 11:19:50;;;;;;;6.43;5.70;;;11.90;99.90;;;;;;5048425;28;20219;-38
2023/01/02 11:22:19;;;;;;;5.77;5.27;;;11.90;99.90;;;;;;5047102;28;20396;-40
2023/01/02 11:25:19;;;;;;;5.83;5.23;;;11.90;99.90;;;;;;5048108;28;20420;-40
2023/01/02 11:27:45;;;;;;;7.20;6.43;;;11.90;99.90;;;;;;5048174;28;20460;-35
2023/01/02 11:30:30;;;;;;;6.40;5.80;;;11.90;99.90;;;;;;5046791;28;20535;-37
2023/01/02 11:33:07;;;;;;;6.53;5.93;;;11.90;99.90;;;;;;5048356;28;20236;-40
2023/01/02 11:35:45;;;;;;;6.73;6.13;;;11.90;99.90;;;;;;5051095;28;20408;-38
2023/01/02 11:38:17;;;;;;;7.00;6.30;;;11.80;99.90;;;;;;5054722;28;20419;-39
2023/01/02 11:41:00;;;;;;;7.90;7.20;;;11.90;99.90;;;;;;5053912;28;20408;-39
2023/01/02 11:43:47;;;;;;;6.57;5.97;;;11.80;99.90;;;;;;5053046;28;20788;-36
2023/01/02 11:46:34;;;;;;;7.83;7.13;;;11.80;99.90;;;;;;5054616;28;20850;-35
2023/01/02 11:49:16;;;;;;;6.77;6.07;;;11.80;99.90;;;;;;5054869;28;20451;-35
2023/01/02 11:51:42;;;;;;;6.60;6.00;;;11.80;99.90;;;;;;5053343;28;20414;-35
2023/01/02 11:54:20;;;;;;;7.20;6.50;;;11.80;99.90;;;;;;5054115;28;20408;-38
2023/01/02 11:56:46;;;;;;;6.60;6.00;;;11.80;99.90;;;;;;5054466;28;20583;-41
2023/01/02 11:59:23;;;;;;;7.63;6.93;;;11.90;99.90;;;;;;5054656;28;20420;-37
2023/01/02 12:02:12;;;;;;;7.03;6.43;;;11.90;99.90;;;;;;5054648;28;20923;-35
2023/01/02 12:04:37;;;;;;;7.50;6.80;;;11.80;99.90;;;;;;5054082;28;20546;-37
2023/01/02 12:07:23;;;;;;;7.97;7.27;;;11.80;99.90;;;;;;5052714;28;20685;-39
2023/01/02 12:10:07;;;;;;;9.50;7.80;;;11.80;99.90;;;;;;5049003;28;20231;-38
2023/01/02 12:12:50;;;;;;;9.10;8.10;;;11.90;99.90;;;;;;5053377;28;20403;-36
2023/01/02 12:15:44;;;;;;;8.90;8.00;;;11.90;99.90;;;;;;5054225;28;20415;-38
2023/01/02 12:18:15;;;;;;;9.30;8.40;;;11.90;99.90;;;;;;5054629;28;20763;-37
2023/01/02 12:21:02;;;;;;;8.17;7.37;;;11.90;99.90;;;;;;5054480;28;20412;-40
2023/01/02 12:23:53;;;;;;;8.10;7.30;;;11.90;99.90;;;;;;5053692;28;20461;-34
2023/01/02 12:26:37;;;;;;;7.60;6.80;;;11.90;99.90;;;;;;5054453;28;20404;-39
2023/01/02 12:29:18;;;;;;;8.03;7.23;;;11.90;99.90;;;;;;5054358;28;20540;-37
2023/01/02 12:32:24;;;;;;;7.47;6.77;;;11.90;99.90;;;;;;5054519;28;20404;-37
2023/01/02 12:34:55;;;;;;;7.70;6.90;;;11.90;99.90;;;;;;5035230;28;20408;-36
2023/01/02 12:37:51;;;;;;;7.53;6.73;;;11.90;99.90;;;;;;5054688;28;20470;-39
2023/01/02 12:40:39;;;;;;;7.47;6.37;;;11.90;99.90;;;;;;5053297;28;20462;-39
2023/01/02 12:43:35;;;;;;;6.17;5.57;;;11.90;99.90;;;;;;5053865;28;20407;-38
2023/01/02 12:46:12;;;;;;;6.07;5.40;;;11.80;99.90;;;;;;5054032;28;20767;-39
2023/01/02 12:48:57;;;;;;;8.13;6.90;;;11.80;99.90;;;;;;5051011;28;20454;-39
2023/01/02 12:51:37;;;;;;;6.43;5.60;;;11.90;99.90;;;;;;5050997;28;20453;-39
2023/01/02 12:54:49;;;;;;;7.13;6.43;;;11.90;99.90;;;;;;5050652;28;20453;-40
2023/01/02 12:57:14;;;;;;;6.27;5.67;;;11.90;99.90;;;;;;5039921;28;20474;-35
2023/01/02 12:59:58;;;;;;;6.43;5.83;;;11.80;99.90;;;;;;5051029;28;21068;-38
2023/01/02 13:02:45;;;;;;;5.80;5.07;;;11.80;99.90;;;;;;5050917;28;20204;-40
2023/01/02 13:05:16;;;;;;;6.80;5.63;;;11.90;99.90;;;;;;5050235;28;20489;-38
2023/01/02 13:07:53;;;;;;;7.40;5.90;;;11.80;99.90;;;;;;5050390;28;20416;-38
2023/01/02 13:10:22;;;;;;;6.73;4.90;;;11.90;99.90;;;;;;5050712;28;20411;-39